createdAt,value
2022-12-03T00:00:47.023Z,7.20
2022-12-03T00:03:17.982Z,12.43
2022-12-03T00:05:49.014Z,7.95
2022-12-03T00:08:19.706Z,9.32
2022-12-03T00:10:50.057Z,4.75
2022-12-03T00:13:20.406Z,6.13
2022-12-03T00:15:50.720Z,5.50
2022-12-03T00:18:21.032Z,9.77
2022-12-03T00:20:51.499Z,8.77
2022-12-03T00:25:51.317Z,12.05
2022-12-03T00:28:21.663Z,8.15
2022-12-03T00:30:55.191Z,12.60
2022-12-03T00:33:27.041Z,7.32
2022-12-03T00:35:57.330Z,10.35
2022-12-03T00:38:27.781Z,19.17
2022-12-03T00:40:58.147Z,7.05
2022-12-03T00:43:28.563Z,9.00
2022-12-03T00:45:58.901Z,9.95
2022-12-03T00:48:29.551Z,15.32
2022-12-03T00:50:59.821Z,7.65
2022-12-03T00:53:29.974Z,9.18
2022-12-03T00:56:00.375Z,8.25
2022-12-03T00:58:30.563Z,9.02
2022-12-03T01:01:00.901Z,9.30
2022-12-03T01:03:31.185Z,16.15
2022-12-03T01:08:30.593Z,10.32
2022-12-03T01:13:30.191Z,13.88
2022-12-03T01:16:00.543Z,9.60
2022-12-03T01:18:30.863Z,7.13
2022-12-03T01:21:01.230Z,13.60
2022-12-03T01:23:31.522Z,8.80
2022-12-03T01:26:01.876Z,13.15
2022-12-03T01:28:32.774Z,9.73
2022-12-03T01:31:21.306Z,12.40
2022-12-03T01:33:51.546Z,12.70
2022-12-03T01:36:22.278Z,5.82
2022-12-03T01:38:52.528Z,15.10
2022-12-03T01:41:24.555Z,10.32
2022-12-03T01:43:56.800Z,9.13
2022-12-03T01:46:33.741Z,21.63
2022-12-03T01:49:04.176Z,9.90
2022-12-03T01:51:34.493Z,17.83
2022-12-03T01:54:06.949Z,7.95
2022-12-03T01:56:37.340Z,6.47
2022-12-03T01:59:07.388Z,11.82
2022-12-03T02:01:37.945Z,14.50
2022-12-03T02:04:10.237Z,13.05
2022-12-03T02:06:40.695Z,11.77
2022-12-03T02:09:15.265Z,12.95
2022-12-03T02:11:50.351Z,13.15
2022-12-03T02:14:40.339Z,8.73
2022-12-03T02:17:10.890Z,12.48
2022-12-03T02:19:41.436Z,11.23
2022-12-03T02:22:37.336Z,9.30
2022-12-03T02:25:12.462Z,7.78
2022-12-03T02:27:43.650Z,7.10
2022-12-03T02:30:15.673Z,11.23
2022-12-03T02:32:46.193Z,16.38
2022-12-03T02:35:22.971Z,9.18
2022-12-03T02:38:00.936Z,9.75
2022-12-03T02:40:34.458Z,11.60
2022-12-03T02:43:05.788Z,7.63
2022-12-03T02:45:40.393Z,12.35
2022-12-03T02:48:10.570Z,10.02
2022-12-03T02:51:07.986Z,9.13
2022-12-03T02:53:43.717Z,8.07
2022-12-03T02:56:16.794Z,15.20
2022-12-03T02:58:49.451Z,11.57
2022-12-03T03:01:20.038Z,15.35
2022-12-03T03:03:52.908Z,6.32
2022-12-03T03:06:23.612Z,13.25
2022-12-03T03:08:54.156Z,9.60
2022-12-03T03:11:24.778Z,9.10
2022-12-03T03:13:55.333Z,12.48
2022-12-03T03:16:25.697Z,8.20
2022-12-03T03:18:56.138Z,9.10
2022-12-03T03:21:26.414Z,12.32
2022-12-03T03:23:56.629Z,8.32
2022-12-03T03:26:26.981Z,13.82
2022-12-03T03:28:58.881Z,11.75
2022-12-03T03:31:29.261Z,8.93
2022-12-03T03:33:59.769Z,11.88
2022-12-03T03:36:30.129Z,23.13
2022-12-03T03:39:01.325Z,16.42
2022-12-03T03:41:32.051Z,12.60
2022-12-03T03:44:02.767Z,12.85
2022-12-03T03:46:34.635Z,9.13
2022-12-03T03:49:06.717Z,15.25
2022-12-03T03:51:38.513Z,13.50
2022-12-03T03:54:09.652Z,10.60
2022-12-03T03:56:40.208Z,16.98
2022-12-03T03:59:10.607Z,13.55
2022-12-03T04:01:41.026Z,11.68
2022-12-03T04:04:23.076Z,11.68
2022-12-03T04:06:53.472Z,15.32
2022-12-03T04:09:23.837Z,8.00
2022-12-03T04:12:12.543Z,17.45
2022-12-03T04:14:42.834Z,11.82
2022-12-03T04:17:13.117Z,17.02
2022-12-03T04:19:43.563Z,16.67
2022-12-03T04:22:31.998Z,18.50
2022-12-03T04:25:20.880Z,16.45
2022-12-03T04:28:09.281Z,17.52
2022-12-03T04:30:39.651Z,5.68
2022-12-03T04:33:28.175Z,11.30
2022-12-03T04:35:58.542Z,16.45
2022-12-03T04:38:28.861Z,12.00
2022-12-03T04:41:08.381Z,13.90
2022-12-03T04:44:01.221Z,16.27
2022-12-03T04:46:31.520Z,11.02
2022-12-03T04:49:01.797Z,20.65
2022-12-03T04:51:32.000Z,10.68
2022-12-03T04:54:02.400Z,21.23
2022-12-03T04:56:32.563Z,13.18
2022-12-03T04:59:02.874Z,20.38
2022-12-03T05:01:33.322Z,11.35
2022-12-03T05:04:03.638Z,13.18
2022-12-03T05:06:34.201Z,17.00
2022-12-03T05:09:05.352Z,21.75
2022-12-03T05:11:35.636Z,16.08
2022-12-03T05:14:06.183Z,15.43
2022-12-03T05:16:36.548Z,19.67
2022-12-03T05:19:07.887Z,17.38
2022-12-03T05:21:38.334Z,13.43
2022-12-03T05:24:08.614Z,9.90
2022-12-03T05:26:38.997Z,11.57
2022-12-03T05:29:09.391Z,9.93
2022-12-03T05:31:41.555Z,33.03
2022-12-03T05:34:11.746Z,12.73
2022-12-03T05:36:41.810Z,13.90
2022-12-03T05:39:11.781Z,5.93
2022-12-03T05:42:00.260Z,12.27
2022-12-03T05:44:30.559Z,14.98
2022-12-03T05:47:00.695Z,11.52
2022-12-03T05:49:30.960Z,10.77
2022-12-03T05:52:01.278Z,16.88
2022-12-03T05:54:31.435Z,40.17
2022-12-03T05:57:01.797Z,34.58
2022-12-03T05:59:32.137Z,39.90
2022-12-03T06:02:02.628Z,22.98
2022-12-03T06:04:32.720Z,27.77
2022-12-03T06:09:32.137Z,27.45
2022-12-03T06:12:02.384Z,22.02
2022-12-03T06:14:33.582Z,14.90
2022-12-03T06:17:06.106Z,11.95
2022-12-03T06:19:36.789Z,13.85
2022-12-03T06:22:07.119Z,22.40
2022-12-03T06:24:37.462Z,14.55
2022-12-03T06:27:07.778Z,20.65
2022-12-03T06:29:38.063Z,21.02
2022-12-03T06:32:08.427Z,17.13
2022-12-03T06:34:38.912Z,15.15
2022-12-03T06:37:09.253Z,21.10
2022-12-03T06:42:08.843Z,25.08
2022-12-03T06:44:39.621Z,15.32
2022-12-03T06:47:09.932Z,19.48
2022-12-03T06:49:40.355Z,17.77
2022-12-03T06:52:10.560Z,10.55
2022-12-03T06:54:41.236Z,18.02
2022-12-03T06:57:11.674Z,14.93
2022-12-03T06:59:42.273Z,11.88
2022-12-03T07:02:14.015Z,13.00
2022-12-03T07:04:46.389Z,15.35
2022-12-03T07:07:16.990Z,18.67
2022-12-03T07:09:47.348Z,17.25
2022-12-03T07:12:17.552Z,14.60
2022-12-03T07:14:47.966Z,12.95
2022-12-03T07:17:18.210Z,16.25
2022-12-03T07:19:48.584Z,15.32
2022-12-03T07:22:18.889Z,21.65
2022-12-03T07:24:49.953Z,19.77
2022-12-03T07:27:20.252Z,19.83
2022-12-03T07:29:50.631Z,11.70
2022-12-03T07:32:20.978Z,16.05
2022-12-03T07:34:51.677Z,19.88
2022-12-03T07:37:23.511Z,11.50
2022-12-03T07:39:53.930Z,19.60
2022-12-03T07:42:24.242Z,18.95
2022-12-03T07:44:54.953Z,12.00
2022-12-03T07:47:25.464Z,25.58
2022-12-03T07:52:25.294Z,7.13
2022-12-03T07:54:55.917Z,12.63
2022-12-03T07:57:26.320Z,17.88
2022-12-03T07:59:56.601Z,14.48
2022-12-03T08:02:26.936Z,18.42
2022-12-03T08:04:57.191Z,15.13
2022-12-03T08:07:27.529Z,20.58
2022-12-03T08:09:57.933Z,17.48
2022-12-03T08:12:50.907Z,8.20
2022-12-03T08:15:27.013Z,12.82
2022-12-03T08:18:02.088Z,20.95
2022-12-03T08:20:36.799Z,15.57
2022-12-03T08:23:13.350Z,16.42
2022-12-03T08:25:44.896Z,13.48
2022-12-03T08:28:20.787Z,5.30
2022-12-03T08:31:05.186Z,13.27
2022-12-03T08:33:38.164Z,19.00
2022-12-03T08:36:21.471Z,8.40
2022-12-03T08:39:03.908Z,9.98
2022-12-03T08:41:52.719Z,19.88
2022-12-03T08:44:30.337Z,24.05
2022-12-03T08:47:19.302Z,11.48
2022-12-03T08:50:01.676Z,18.38
2022-12-03T08:52:36.362Z,13.73
2022-12-03T08:55:47.856Z,8.63
2022-12-03T08:58:45.564Z,13.07
2022-12-03T09:01:16.053Z,10.38
2022-12-03T09:03:55.841Z,17.92
2022-12-03T09:06:26.322Z,18.25
2022-12-03T09:08:56.661Z,14.05
2022-12-03T09:11:26.990Z,22.60
2022-12-03T09:13:57.389Z,15.82
2022-12-03T09:16:27.556Z,11.73
2022-12-03T09:18:57.962Z,14.68
2022-12-03T09:21:29.064Z,12.05
2022-12-03T09:24:00.020Z,7.93
2022-12-03T09:26:31.385Z,11.52
2022-12-03T09:29:01.709Z,19.35
2022-12-03T09:31:32.107Z,10.85
2022-12-03T09:34:04.781Z,14.48
2022-12-03T09:36:35.532Z,12.52
2022-12-03T09:39:06.498Z,14.57
2022-12-03T09:41:37.135Z,15.43
2022-12-03T09:44:10.891Z,13.38
2022-12-03T09:46:46.813Z,8.27
2022-12-03T09:49:19.393Z,15.57
2022-12-03T09:51:49.799Z,12.05
2022-12-03T09:54:26.019Z,10.50
2022-12-03T09:56:58.339Z,11.93
2022-12-03T09:59:36.415Z,28.02
2022-12-03T10:02:33.023Z,10.95
2022-12-03T10:05:03.494Z,21.70
2022-12-03T10:07:33.917Z,42.90
2022-12-03T10:10:04.546Z,25.20
2022-12-03T10:12:34.897Z,15.15
2022-12-03T10:15:05.510Z,19.77
2022-12-03T10:17:35.816Z,28.10
2022-12-03T10:20:06.665Z,23.60
2022-12-03T10:22:38.755Z,25.05
2022-12-03T10:25:18.375Z,13.65
2022-12-03T10:28:03.186Z,10.45
2022-12-03T10:30:34.214Z,12.60
2022-12-03T10:33:19.269Z,21.52
2022-12-03T10:35:49.943Z,16.08
2022-12-03T10:38:21.369Z,19.63
2022-12-03T10:40:51.970Z,19.75
2022-12-03T10:43:22.242Z,14.40
2022-12-03T10:46:04.857Z,16.02
2022-12-03T10:48:35.274Z,8.75
2022-12-03T10:51:07.260Z,17.40
2022-12-03T10:53:40.248Z,10.75
2022-12-03T10:56:16.696Z,15.50
2022-12-03T10:59:02.449Z,16.88
2022-12-03T11:01:33.868Z,12.70
2022-12-03T11:04:06.552Z,12.93
2022-12-03T11:06:36.951Z,10.32
2022-12-03T11:09:18.746Z,9.95
2022-12-03T11:11:49.782Z,12.57
2022-12-03T11:15:06.379Z,6.43
2022-12-03T11:17:45.389Z,7.93
2022-12-03T11:20:27.605Z,9.38
2022-12-03T11:22:59.293Z,11.85
2022-12-03T11:25:29.604Z,10.05
2022-12-03T11:28:15.221Z,9.85
2022-12-03T11:30:57.770Z,12.18
2022-12-03T11:33:40.776Z,8.60
2022-12-03T11:36:14.300Z,9.75
2022-12-03T11:38:55.686Z,16.23
2022-12-03T11:41:30.752Z,15.35
2022-12-03T11:44:25.802Z,7.88
2022-12-03T11:46:57.088Z,6.65
2022-12-03T11:49:36.079Z,14.93
2022-12-03T11:52:25.149Z,9.50
2022-12-03T11:55:06.666Z,10.50
2022-12-03T11:57:41.675Z,10.57
2022-12-03T12:00:20.981Z,11.15
2022-12-03T12:02:53.185Z,7.05
2022-12-03T12:05:31.861Z,12.25
2022-12-03T12:08:04.973Z,9.13
2022-12-03T12:10:51.341Z,8.10
2022-12-03T12:13:55.683Z,5.18
2022-12-03T12:16:53.487Z,6.82
2022-12-03T12:19:45.101Z,4.80
2022-12-03T12:22:25.442Z,5.85
2022-12-03T12:25:04.386Z,13.05
2022-12-03T12:27:39.238Z,9.30
2022-12-03T12:30:12.352Z,9.68
2022-12-03T12:32:53.883Z,6.53
2022-12-03T12:35:26.513Z,6.72
2022-12-03T12:38:02.616Z,5.35
2022-12-03T12:40:35.303Z,8.85
2022-12-03T12:43:28.821Z,5.30
2022-12-03T12:46:18.570Z,3.60
2022-12-03T12:48:57.955Z,3.03
2022-12-03T12:51:30.136Z,6.82
2022-12-03T12:54:00.466Z,9.32
2022-12-03T12:56:33.145Z,6.22
2022-12-03T12:59:19.379Z,4.53
2022-12-03T13:01:52.176Z,7.13
2022-12-03T13:04:25.024Z,7.18
2022-12-03T13:06:56.402Z,6.80
2022-12-03T13:09:27.747Z,5.53
2022-12-03T13:12:05.173Z,6.93
2022-12-03T13:15:30.674Z,7.40
2022-12-03T13:19:14.161Z,11.45
2022-12-03T13:22:04.555Z,17.50
2022-12-03T13:24:44.667Z,9.38
2022-12-03T13:27:27.199Z,6.80
2022-12-03T13:29:57.507Z,6.25
2022-12-03T13:32:39.165Z,8.48
2022-12-03T13:35:31.850Z,7.00
2022-12-03T13:38:02.501Z,9.35
2022-12-03T13:40:37.912Z,6.13
2022-12-03T13:43:20.392Z,5.90
2022-12-03T13:45:52.719Z,8.90
2022-12-03T13:48:36.411Z,14.88
2022-12-03T13:51:29.209Z,4.45
2022-12-03T13:54:00.957Z,13.00
2022-12-03T13:56:33.888Z,7.95
2022-12-03T13:59:05.664Z,5.47
2022-12-03T14:01:37.413Z,6.55
2022-12-03T14:04:08.111Z,5.88
2022-12-03T14:06:38.451Z,5.43
2022-12-03T14:09:08.820Z,7.63
2022-12-03T14:11:57.292Z,5.68
2022-12-03T14:17:01.623Z,8.50
2022-12-03T14:19:33.518Z,6.38
2022-12-03T14:22:10.991Z,10.30
2022-12-03T14:24:41.472Z,7.18
2022-12-03T14:27:11.724Z,6.00
2022-12-03T14:29:45.176Z,5.93
2022-12-03T14:32:42.796Z,5.10
2022-12-03T14:35:22.350Z,4.97
2022-12-03T14:37:52.501Z,10.70
2022-12-03T14:40:34.106Z,6.97
2022-12-03T14:43:04.664Z,8.15
2022-12-03T14:45:40.104Z,6.78
2022-12-03T14:48:11.625Z,7.97
2022-12-03T14:50:42.044Z,12.95
2022-12-03T14:53:33.607Z,9.13
2022-12-03T14:56:07.132Z,9.48
2022-12-03T14:58:40.867Z,5.65
2022-12-03T15:01:11.414Z,8.38
2022-12-03T15:03:41.682Z,5.20
2022-12-03T15:06:19.375Z,5.68
2022-12-03T15:08:49.620Z,6.57
2022-12-03T15:14:22.270Z,8.02
2022-12-03T15:17:15.105Z,9.18
2022-12-03T15:19:48.287Z,6.45
2022-12-03T15:22:18.615Z,9.25
2022-12-03T15:24:50.153Z,7.93
2022-12-03T15:27:21.708Z,9.77
2022-12-03T15:29:55.513Z,7.07
2022-12-03T15:32:39.455Z,7.00
2022-12-03T15:35:23.316Z,7.88
2022-12-03T15:37:53.704Z,8.68
2022-12-03T15:40:24.242Z,5.47
2022-12-03T15:42:54.739Z,7.43
2022-12-03T15:45:25.103Z,5.45
2022-12-03T15:47:55.478Z,4.75
2022-12-03T15:50:25.649Z,7.97
2022-12-03T15:52:55.957Z,7.63
2022-12-03T15:55:26.502Z,7.35
2022-12-03T15:57:56.947Z,6.18
2022-12-03T16:00:27.393Z,8.82
2022-12-03T16:02:57.698Z,8.13
2022-12-03T16:05:31.063Z,4.88
2022-12-03T16:08:01.777Z,5.28
2022-12-03T16:13:34.725Z,5.00
2022-12-03T16:16:18.911Z,5.05
2022-12-03T16:18:59.588Z,6.88
2022-12-03T16:21:49.584Z,5.18
2022-12-03T16:24:21.352Z,4.18
2022-12-03T16:26:51.613Z,4.85
2022-12-03T16:29:37.822Z,4.30
2022-12-03T16:32:18.301Z,4.35
2022-12-03T16:35:12.176Z,3.75
2022-12-03T16:38:07.201Z,7.80
2022-12-03T16:40:42.601Z,4.03
2022-12-03T16:43:35.619Z,4.78
2022-12-03T16:46:27.187Z,2.72
2022-12-03T16:49:02.095Z,4.70
2022-12-03T16:51:32.440Z,2.55
2022-12-03T16:54:02.826Z,7.35
2022-12-03T16:56:33.367Z,11.43
2022-12-03T16:59:04.163Z,2.78
2022-12-03T17:01:34.544Z,6.75
2022-12-03T17:04:04.935Z,5.28
2022-12-03T17:06:35.231Z,4.03
2022-12-03T17:09:05.622Z,2.28
2022-12-03T17:11:36.250Z,3.15
2022-12-03T17:14:06.548Z,2.95
2022-12-03T17:16:36.912Z,4.10
2022-12-03T17:19:07.263Z,3.88
2022-12-03T17:21:37.394Z,3.08
2022-12-03T17:24:08.018Z,1.95
2022-12-03T17:26:38.362Z,3.65
2022-12-03T17:29:08.649Z,3.03
2022-12-03T17:31:42.243Z,4.00
2022-12-03T17:34:12.984Z,6.38
2022-12-03T17:36:43.322Z,2.50
2022-12-03T17:39:13.712Z,6.07
2022-12-03T17:41:44.023Z,6.03
2022-12-03T17:44:19.452Z,2.35
2022-12-03T17:46:51.417Z,4.05
2022-12-03T17:49:23.766Z,4.03
2022-12-03T17:51:59.465Z,3.80
2022-12-03T17:54:49.020Z,7.57
2022-12-03T17:57:20.113Z,2.28
2022-12-03T17:59:50.405Z,1.92
2022-12-03T18:02:20.726Z,3.00
2022-12-03T18:04:51.065Z,3.10
2022-12-03T18:07:21.459Z,6.88
2022-12-03T18:09:51.831Z,1.83
2022-12-03T18:12:23.578Z,2.65
2022-12-03T18:14:53.918Z,3.83
2022-12-03T18:17:24.255Z,1.52
2022-12-03T18:19:54.816Z,7.78
2022-12-03T18:22:25.297Z,3.03
2022-12-03T18:24:56.378Z,2.83
2022-12-03T18:27:26.990Z,3.08
2022-12-03T18:29:57.531Z,2.78
2022-12-03T18:32:29.740Z,3.80
2022-12-03T18:35:00.658Z,1.33
2022-12-03T18:37:31.838Z,2.75
2022-12-03T18:40:27.266Z,1.48
2022-12-03T18:42:58.947Z,3.83
2022-12-03T18:45:29.300Z,3.42
2022-12-03T18:47:59.721Z,1.23
2022-12-03T18:50:30.034Z,1.67
2022-12-03T18:53:00.405Z,1.58
2022-12-03T18:55:35.259Z,2.47
2022-12-03T18:58:06.053Z,4.63
2022-12-03T19:00:37.085Z,2.08
2022-12-03T19:03:08.728Z,1.30
2022-12-03T19:05:39.084Z,1.83
2022-12-03T19:08:15.615Z,5.55
2022-12-03T19:10:45.974Z,3.95
2022-12-03T19:13:16.604Z,2.38
2022-12-03T19:15:47.611Z,1.50
2022-12-03T19:18:18.034Z,2.70
2022-12-03T19:20:48.206Z,3.72
2022-12-03T19:23:19.496Z,2.63
2022-12-03T19:26:03.308Z,1.27
2022-12-03T19:28:33.796Z,3.45
2022-12-03T19:31:10.164Z,4.80
2022-12-03T19:33:41.039Z,2.00
2022-12-03T19:36:30.831Z,1.90
2022-12-03T19:39:02.611Z,5.35
2022-12-03T19:41:32.980Z,0.60
2022-12-03T19:44:07.827Z,3.00
2022-12-03T19:46:41.250Z,0.93
2022-12-03T19:49:12.438Z,2.90
2022-12-03T19:51:42.686Z,1.15
2022-12-03T19:54:13.990Z,1.60
2022-12-03T19:56:44.440Z,1.52
2022-12-03T19:59:16.968Z,1.67
2022-12-03T20:01:47.410Z,0.93
2022-12-03T20:04:17.908Z,1.00
2022-12-03T20:06:48.783Z,1.48
2022-12-03T20:09:19.111Z,5.82
2022-12-03T20:11:52.691Z,0.75
2022-12-03T20:14:23.603Z,2.80
2022-12-03T20:16:53.902Z,0.60
2022-12-03T20:19:24.277Z,2.13
2022-12-03T20:21:59.068Z,2.28
2022-12-03T20:24:32.538Z,3.03
2022-12-03T20:27:02.592Z,0.60
2022-12-03T20:29:32.937Z,1.70
2022-12-03T20:32:03.352Z,8.80
2022-12-03T20:34:35.453Z,3.33
2022-12-03T20:37:05.777Z,3.08
2022-12-03T20:39:36.007Z,4.93
2022-12-03T20:42:06.276Z,1.80
2022-12-03T20:44:36.707Z,2.60
2022-12-03T20:47:07.673Z,4.47
2022-12-03T20:49:40.372Z,6.97
2022-12-03T20:52:10.794Z,4.38
2022-12-03T20:54:40.908Z,6.90
2022-12-03T20:57:11.211Z,5.65
2022-12-03T20:59:41.577Z,6.88
2022-12-03T21:02:12.885Z,1.88
2022-12-03T21:04:43.549Z,6.00
2022-12-03T21:07:13.990Z,6.88
2022-12-03T21:09:44.313Z,5.15
2022-12-03T21:12:14.697Z,2.05
2022-12-03T21:14:45.305Z,4.68
2022-12-03T21:17:15.776Z,2.20
2022-12-03T21:19:46.165Z,2.40
2022-12-03T21:22:16.601Z,4.63
2022-12-03T21:24:47.018Z,6.03
2022-12-03T21:27:21.559Z,4.65
2022-12-03T21:29:52.826Z,6.60
2022-12-03T21:32:23.396Z,2.70
2022-12-03T21:34:53.751Z,4.57
2022-12-03T21:37:24.304Z,4.13
2022-12-03T21:39:55.016Z,7.68
2022-12-03T21:42:36.631Z,5.28
2022-12-03T21:45:08.269Z,4.32
2022-12-03T21:47:39.118Z,6.50
2022-12-03T21:50:12.840Z,2.13
2022-12-03T21:52:43.414Z,7.30
2022-12-03T21:55:14.005Z,1.85
2022-12-03T21:57:44.372Z,1.50
2022-12-03T22:00:15.255Z,3.80
2022-12-03T22:02:45.814Z,2.67
2022-12-03T22:05:16.216Z,2.53
2022-12-03T22:07:46.619Z,3.55
2022-12-03T22:10:17.004Z,6.10
2022-12-03T22:12:47.283Z,9.65
2022-12-03T22:15:19.336Z,5.93
2022-12-03T22:17:50.099Z,6.63
2022-12-03T22:20:20.921Z,5.45
2022-12-03T22:22:51.500Z,3.55
2022-12-03T22:25:21.842Z,6.85
2022-12-03T22:27:52.134Z,3.13
2022-12-03T22:30:22.474Z,5.22
2022-12-03T22:32:52.725Z,7.38
2022-12-03T22:35:23.112Z,2.83
2022-12-03T22:37:53.422Z,4.22
2022-12-03T22:40:23.809Z,5.68
2022-12-03T22:42:54.144Z,5.47
2022-12-03T22:45:24.226Z,6.50
2022-12-03T22:47:54.414Z,8.13
2022-12-03T22:50:24.798Z,15.77
2022-12-03T22:52:55.112Z,7.70
2022-12-03T22:55:25.550Z,9.57
2022-12-03T22:57:55.806Z,3.83
2022-12-03T23:00:35.499Z,7.18
2022-12-03T23:03:24.955Z,5.68
2022-12-03T23:05:55.254Z,2.80
2022-12-03T23:08:25.589Z,4.82
2022-12-03T23:10:55.943Z,4.70
2022-12-03T23:13:26.551Z,7.18
2022-12-03T23:15:57.010Z,3.75
2022-12-03T23:18:27.433Z,6.70
2022-12-03T23:20:58.803Z,5.93
2022-12-03T23:23:29.799Z,5.07
2022-12-03T23:26:09.067Z,5.75
2022-12-03T23:28:42.377Z,7.78
2022-12-03T23:31:20.613Z,3.85
2022-12-03T23:33:52.633Z,5.00
2022-12-03T23:36:24.145Z,4.65
2022-12-03T23:38:54.500Z,8.77
2022-12-03T23:41:26.409Z,4.05
2022-12-03T23:43:57.602Z,6.85
2022-12-03T23:46:29.058Z,2.80
2022-12-03T23:49:00.848Z,2.60
2022-12-03T23:51:31.150Z,3.53
2022-12-03T23:54:01.467Z,6.57
2022-12-03T23:56:32.522Z,5.10
2022-12-03T23:59:03.022Z,3.92
